Time;durP1;ratioP1;P1;durP2;ratioP2;P2;SDS_P1;SDS_P2;PMS_P1;PMS_P2;Temp;Humidity;BMP_temperature;BMP_pressure;BME280_temperature;BME280_humidity;BME280_pressure;Samples;Min_cycle;Max_cycle;Signal;HPM_P1;HPM_P2
2021/10/27 00:02:11;;;;;;;8.55;4.72;;;6.10;99.90;;;;;;5050390;28;20120;-67
2021/10/27 00:04:37;;;;;;;6.85;4.72;;;6.10;99.90;;;;;;5050418;28;20043;-67
2021/10/27 00:07:03;;;;;;;9.48;4.97;;;6.10;99.90;;;;;;5049710;28;20082;-67
2021/10/27 00:09:29;;;;;;;6.13;4.05;;;6.00;99.90;;;;;;5050115;28;20025;-67
2021/10/27 00:11:54;;;;;;;6.63;4.82;;;5.90;99.90;;;;;;5049941;28;20120;-67
2021/10/27 00:14:20;;;;;;;9.27;4.68;;;5.90;99.90;;;;;;5048887;28;20339;-67
2021/10/27 00:16:46;;;;;;;5.97;4.65;;;5.80;99.90;;;;;;5050149;28;20024;-67
2021/10/27 00:19:12;;;;;;;8.10;4.60;;;5.80;99.90;;;;;;5049270;28;20120;-67
2021/10/27 00:21:38;;;;;;;5.90;4.90;;;5.70;99.90;;;;;;5049952;28;20025;-67
2021/10/27 00:24:04;;;;;;;10.20;5.90;;;5.70;99.90;;;;;;5048760;28;20118;-67
2021/10/27 00:26:30;;;;;;;8.73;5.75;;;5.70;99.90;;;;;;5049557;28;20033;-67
2021/10/27 00:28:56;;;;;;;5.82;4.70;;;5.60;99.90;;;;;;5049074;28;20029;-67
2021/10/27 00:31:21;;;;;;;8.80;5.55;;;5.60;99.90;;;;;;5048713;28;20068;-67
2021/10/27 00:33:47;;;;;;;11.00;5.75;;;5.60;99.90;;;;;;5049172;28;20071;-67
2021/10/27 00:36:13;;;;;;;10.30;5.60;;;5.60;99.90;;;;;;5047966;28;20033;-67
2021/10/27 00:38:39;;;;;;;11.13;5.70;;;5.50;99.90;;;;;;5049123;28;20100;-67
2021/10/27 00:41:09;;;;;;;8.55;5.60;;;5.60;99.90;;;;;;5048241;28;20113;-67
2021/10/27 00:43:36;;;;;;;8.48;5.50;;;5.60;99.90;;;;;;5046750;28;20056;-66
2021/10/27 00:46:02;;;;;;;8.80;5.10;;;5.50;99.90;;;;;;5047958;28;20071;-67
2021/10/27 00:48:28;;;;;;;12.35;6.03;;;5.50;99.90;;;;;;5048602;28;20425;-67
2021/10/27 00:50:54;;;;;;;11.60;6.25;;;5.50;99.90;;;;;;5048745;28;20036;-67
2021/10/27 00:53:20;;;;;;;7.43;5.53;;;5.50;99.90;;;;;;5047983;28;20044;-67
2021/10/27 00:55:46;;;;;;;11.27;5.97;;;5.50;99.90;;;;;;5048474;28;20043;-66
2021/10/27 00:58:13;;;;;;;10.63;5.00;;;5.50;99.90;;;;;;5047930;28;20108;-67
2021/10/27 01:00:39;;;;;;;13.07;5.65;;;5.40;99.90;;;;;;5048830;28;20037;-67
2021/10/27 01:03:06;;;;;;;8.80;6.30;;;5.30;99.90;;;;;;5047830;28;20087;-66
2021/10/27 01:05:31;;;;;;;7.53;6.10;;;5.30;99.90;;;;;;5046959;28;20103;-67
2021/10/27 01:07:57;;;;;;;9.13;6.30;;;5.30;99.90;;;;;;5048185;28;20155;-67
2021/10/27 01:10:23;;;;;;;11.95;7.13;;;5.20;99.90;;;;;;5048233;28;20102;-67
2021/10/27 01:12:49;;;;;;;10.07;6.05;;;5.20;99.90;;;;;;5048448;28;20033;-67
2021/10/27 01:15:15;;;;;;;11.38;7.22;;;5.20;99.90;;;;;;5047398;28;20039;-66
2021/10/27 01:17:40;;;;;;;10.02;6.78;;;5.20;99.90;;;;;;5048213;28;20021;-67
2021/10/27 01:20:07;;;;;;;8.40;6.35;;;5.20;99.90;;;;;;5047639;28;20025;-67
2021/10/27 01:22:35;;;;;;;12.18;7.22;;;5.20;99.90;;;;;;5048200;28;20029;-67
2021/10/27 01:25:02;;;;;;;11.13;7.00;;;5.10;99.90;;;;;;5047124;28;20037;-66
2021/10/27 01:27:28;;;;;;;12.75;6.82;;;5.10;99.90;;;;;;5047646;28;20044;-67
2021/10/27 01:29:55;;;;;;;12.93;7.40;;;5.10;99.90;;;;;;5048268;28;20044;-67
2021/10/27 01:32:32;;;;;;;9.95;6.82;;;5.10;99.90;;;;;;5047021;28;20028;-67
2021/10/27 01:34:59;;;;;;;10.63;6.47;;;5.10;99.90;;;;;;5049014;28;20044;-67
2021/10/27 01:37:25;;;;;;;11.13;6.55;;;5.10;99.90;;;;;;5049762;28;20039;-67
2021/10/27 01:39:53;;;;;;;11.07;6.55;;;5.00;99.90;;;;;;5051453;28;20104;-67
2021/10/27 01:42:19;;;;;;;12.75;7.65;;;5.00;99.90;;;;;;5050173;28;20627;-67
2021/10/27 01:44:45;;;;;;;9.32;6.97;;;4.90;99.90;;;;;;5051238;28;20085;-66
2021/10/27 01:47:10;;;;;;;9.93;6.80;;;4.90;99.90;;;;;;5050239;28;20060;-67
2021/10/27 01:49:36;;;;;;;12.88;7.15;;;4.90;99.90;;;;;;5051546;28;20033;-66
2021/10/27 01:52:03;;;;;;;12.27;7.75;;;5.00;99.90;;;;;;5050529;28;20029;-67
2021/10/27 01:54:29;;;;;;;11.60;7.57;;;4.90;99.90;;;;;;5049330;28;20039;-67
2021/10/27 01:56:55;;;;;;;11.73;7.43;;;4.90;99.90;;;;;;5051085;28;20131;-67
2021/10/27 01:59:21;;;;;;;12.80;8.07;;;4.90;99.90;;;;;;5050158;28;20651;-67
2021/10/27 02:01:48;;;;;;;12.00;8.50;;;4.80;99.90;;;;;;5051197;28;20033;-67
2021/10/27 02:04:14;;;;;;;13.35;8.70;;;4.80;99.90;;;;;;5050215;28;20032;-67
2021/10/27 02:06:40;;;;;;;15.40;9.18;;;4.80;99.90;;;;;;5050524;28;20024;-67
2021/10/27 02:09:06;;;;;;;14.05;8.50;;;4.80;99.90;;;;;;5049940;28;20103;-67
2021/10/27 02:11:33;;;;;;;13.48;8.73;;;4.80;99.90;;;;;;5049543;28;20382;-67
2021/10/27 02:14:01;;;;;;;11.38;7.70;;;4.70;99.90;;;;;;5051244;28;20060;-67
2021/10/27 02:16:27;;;;;;;13.48;8.02;;;4.70;99.90;;;;;;5050420;28;20036;-67
2021/10/27 02:18:54;;;;;;;13.07;8.43;;;4.60;99.90;;;;;;5050489;28;20059;-66
2021/10/27 02:21:20;;;;;;;17.67;9.98;;;4.60;99.90;;;;;;5050074;28;20095;-67
2021/10/27 02:23:45;;;;;;;18.38;10.52;;;4.60;99.90;;;;;;5050337;28;20033;-67
2021/10/27 02:26:11;;;;;;;11.63;8.70;;;4.60;99.90;;;;;;5050031;28;20036;-67
2021/10/27 02:28:38;;;;;;;18.88;10.27;;;4.60;99.90;;;;;;5050948;28;20067;-67
2021/10/27 02:31:05;;;;;;;17.70;10.50;;;4.60;99.90;;;;;;5049860;28;20025;-67
2021/10/27 02:33:30;;;;;;;14.27;8.63;;;4.60;99.90;;;;;;5050793;28;20029;-66
2021/10/27 02:35:56;;;;;;;18.77;10.38;;;4.60;99.90;;;;;;5050513;28;20100;-67
2021/10/27 02:38:22;;;;;;;18.75;10.32;;;4.60;99.90;;;;;;5052282;28;20059;-66
2021/10/27 02:40:48;;;;;;;15.05;9.95;;;4.50;99.90;;;;;;5055247;28;20029;-66
2021/10/27 02:43:15;;;;;;;17.92;9.82;;;4.50;99.90;;;;;;5053672;28;20509;-66
2021/10/27 02:45:43;;;;;;;15.55;9.43;;;4.50;99.90;;;;;;5034978;28;20425;-66
2021/10/27 02:48:09;;;;;;;15.75;10.63;;;4.50;99.90;;;;;;5047535;28;20080;-67
2021/10/27 02:50:34;;;;;;;16.67;10.48;;;4.50;99.90;;;;;;5054484;28;20061;-66
2021/10/27 02:53:05;;;;;;;15.63;10.63;;;4.50;99.90;;;;;;5053959;28;20529;-66
2021/10/27 02:55:30;;;;;;;12.55;10.10;;;4.50;99.90;;;;;;5054565;28;20036;-66
2021/10/27 02:57:59;;;;;;;19.38;11.32;;;4.40;99.90;;;;;;5054120;28;20025;-66
2021/10/27 03:00:29;;;;;;;15.43;10.40;;;4.40;99.90;;;;;;5053716;28;20029;-67
2021/10/27 03:02:55;;;;;;;16.33;10.65;;;4.40;99.90;;;;;;5053973;28;20373;-67
2021/10/27 03:05:21;;;;;;;17.65;11.00;;;4.40;99.90;;;;;;5053302;28;20033;-66
2021/10/27 03:07:47;;;;;;;17.80;11.65;;;4.40;99.90;;;;;;5053427;28;20028;-67
2021/10/27 03:10:13;;;;;;;20.50;12.40;;;4.40;99.90;;;;;;5053389;28;20056;-66
2021/10/27 03:12:39;;;;;;;17.02;10.82;;;4.40;99.90;;;;;;5054217;28;20041;-66
2021/10/27 03:15:05;;;;;;;21.65;11.88;;;4.40;99.90;;;;;;5053620;28;20115;-66
2021/10/27 03:17:31;;;;;;;21.23;13.70;;;4.40;99.90;;;;;;5052427;28;20025;-66
2021/10/27 03:19:57;;;;;;;23.13;13.95;;;4.40;99.90;;;;;;5054017;28;20032;-66
2021/10/27 03:22:23;;;;;;;33.28;16.23;;;4.50;99.90;;;;;;5053347;28;20112;-66
2021/10/27 03:24:49;;;;;;;26.20;14.13;;;4.60;99.90;;;;;;5053988;28;20140;-67
2021/10/27 03:27:14;;;;;;;22.58;12.75;;;4.70;99.90;;;;;;5053316;28;20033;-66
2021/10/27 03:29:41;;;;;;;23.25;13.27;;;4.70;99.90;;;;;;5053391;28;20462;-66
2021/10/27 03:32:07;;;;;;;23.08;12.20;;;4.70;99.90;;;;;;5052999;28;20114;-68
2021/10/27 03:34:33;;;;;;;21.85;12.68;;;4.70;99.90;;;;;;5053955;28;20033;-66
2021/10/27 03:36:59;;;;;;;20.58;12.88;;;4.70;99.90;;;;;;5053323;28;20386;-66
2021/10/27 03:39:24;;;;;;;20.05;12.88;;;4.60;99.90;;;;;;5052663;28;20264;-66
2021/10/27 03:41:50;;;;;;;17.33;11.68;;;4.60;99.90;;;;;;5053614;28;20036;-66
2021/10/27 03:44:17;;;;;;;17.10;10.95;;;4.50;99.90;;;;;;5052805;28;20053;-66
2021/10/27 03:46:43;;;;;;;17.58;11.88;;;4.50;99.90;;;;;;5053596;28;20029;-66
2021/10/27 03:49:08;;;;;;;22.20;12.57;;;4.50;99.90;;;;;;5052196;28;20497;-66
2021/10/27 03:51:34;;;;;;;20.65;14.13;;;4.40;99.90;;;;;;5053536;28;20040;-67
2021/10/27 03:54:00;;;;;;;23.40;14.05;;;4.40;99.90;;;;;;5053606;28;20506;-66
2021/10/27 03:56:26;;;;;;;28.02;15.45;;;4.40;99.90;;;;;;5052689;28;20092;-66
2021/10/27 03:58:51;;;;;;;23.55;14.48;;;4.40;99.90;;;;;;5052643;28;20063;-66
2021/10/27 04:01:17;;;;;;;20.10;13.25;;;4.40;99.90;;;;;;5052288;28;20033;-67
2021/10/27 04:03:43;;;;;;;24.67;14.18;;;4.40;99.90;;;;;;5052828;28;20308;-67
2021/10/27 04:06:09;;;;;;;23.40;14.80;;;4.40;99.90;;;;;;5052529;28;20036;-67
2021/10/27 04:08:35;;;;;;;22.98;14.35;;;4.40;99.90;;;;;;5053116;28;20036;-67
2021/10/27 04:11:00;;;;;;;26.17;14.48;;;4.40;99.90;;;;;;5052775;28;20111;-67
2021/10/27 04:13:26;;;;;;;22.88;13.93;;;4.40;99.90;;;;;;5052185;28;20607;-67
2021/10/27 04:15:52;;;;;;;17.77;12.07;;;4.40;99.90;;;;;;5052871;28;20044;-66
2021/10/27 04:18:18;;;;;;;28.35;14.18;;;4.30;99.90;;;;;;5052267;28;20029;-66
2021/10/27 04:20:44;;;;;;;25.52;14.27;;;4.30;99.90;;;;;;5052879;28;20065;-66
2021/10/27 04:23:11;;;;;;;24.65;14.05;;;4.20;99.90;;;;;;5051530;28;20025;-66
2021/10/27 04:25:37;;;;;;;24.45;15.30;;;4.20;99.90;;;;;;5052618;28;20036;-66
2021/10/27 04:28:04;;;;;;;22.98;14.65;;;4.10;99.90;;;;;;5053094;28;20056;-66
2021/10/27 04:30:31;;;;;;;31.15;17.33;;;4.10;99.90;;;;;;5052467;28;20039;-66
2021/10/27 04:32:56;;;;;;;27.17;16.58;;;4.10;99.90;;;;;;5052237;28;20378;-66
2021/10/27 04:35:24;;;;;;;26.90;16.42;;;4.10;99.90;;;;;;5051685;28;20094;-66
2021/10/27 04:37:50;;;;;;;28.73;16.00;;;4.10;99.90;;;;;;5052388;28;20102;-66
2021/10/27 04:40:18;;;;;;;25.02;15.68;;;4.10;99.90;;;;;;5049012;28;20739;-67
2021/10/27 04:42:44;;;;;;;29.88;16.20;;;4.10;99.90;;;;;;5048929;28;20039;-66
2021/10/27 04:45:11;;;;;;;24.67;15.25;;;4.00;99.90;;;;;;5063158;28;20081;-67
2021/10/27 04:47:37;;;;;;;27.85;16.88;;;4.00;99.90;;;;;;5049317;28;20025;-66
2021/10/27 04:50:05;;;;;;;25.92;15.02;;;4.00;99.90;;;;;;5048994;28;20055;-66
2021/10/27 04:52:31;;;;;;;25.25;15.63;;;4.00;99.90;;;;;;5048893;28;20033;-68
2021/10/27 04:54:57;;;;;;;24.63;14.70;;;4.00;99.90;;;;;;5049389;28;20081;-66
2021/10/27 04:57:23;;;;;;;27.88;14.73;;;4.10;99.90;;;;;;5048041;28;20382;-67
2021/10/27 04:59:49;;;;;;;29.58;15.93;;;4.10;99.90;;;;;;5047540;28;20032;-67
2021/10/27 05:02:16;;;;;;;28.45;16.05;;;4.30;99.90;;;;;;5048582;28;20398;-67
2021/10/27 05:04:42;;;;;;;23.08;14.32;;;4.30;99.90;;;;;;5047990;28;20170;-66
2021/10/27 05:07:12;;;;;;;21.58;13.98;;;4.40;99.90;;;;;;5046979;28;20482;-66
2021/10/27 05:09:39;;;;;;;21.85;13.25;;;4.40;99.90;;;;;;5048647;28;20439;-68
2021/10/27 05:12:05;;;;;;;22.45;12.93;;;4.40;99.90;;;;;;5050079;28;20175;-66
2021/10/27 05:14:32;;;;;;;17.05;11.48;;;4.40;99.90;;;;;;5049538;28;20539;-66
2021/10/27 05:16:57;;;;;;;16.80;11.13;;;4.30;99.90;;;;;;5051545;28;20112;-66
2021/10/27 05:19:23;;;;;;;19.85;12.25;;;4.20;99.90;;;;;;5050544;28;20064;-67
2021/10/27 05:21:49;;;;;;;24.10;12.80;;;4.10;99.90;;;;;;5051599;28;20063;-66
2021/10/27 05:24:15;;;;;;;22.48;13.07;;;4.10;99.90;;;;;;5050524;28;20033;-67
2021/10/27 05:26:41;;;;;;;23.77;14.48;;;4.00;99.90;;;;;;5051375;28;20056;-67
2021/10/27 05:29:07;;;;;;;20.17;13.27;;;4.00;99.90;;;;;;5051448;28;20036;-68
2021/10/27 05:31:32;;;;;;;23.13;13.48;;;4.00;99.90;;;;;;5050924;28;20025;-66
2021/10/27 05:33:59;;;;;;;24.83;12.88;;;4.00;99.90;;;;;;5050109;28;20080;-67
2021/10/27 05:36:26;;;;;;;21.83;12.38;;;4.00;99.90;;;;;;5052397;28;20032;-66
2021/10/27 05:38:52;;;;;;;20.67;12.38;;;4.00;99.90;;;;;;5051796;28;20098;-66
2021/10/27 05:41:18;;;;;;;17.50;11.27;;;4.00;99.90;;;;;;5049891;28;20029;-66
2021/10/27 05:43:45;;;;;;;22.05;12.73;;;4.00;99.90;;;;;;5051269;28;20482;-68
2021/10/27 05:46:12;;;;;;;21.90;12.80;;;3.90;99.90;;;;;;5050694;28;20439;-67
2021/10/27 05:48:43;;;;;;;30.33;15.73;;;3.90;99.90;;;;;;5050929;28;20032;-67
2021/10/27 05:51:14;;;;;;;24.45;14.82;;;4.00;99.90;;;;;;5050911;28;20386;-67
2021/10/27 05:56:25;;;;;;;22.05;14.00;;;4.10;99.90;;;;;;5050221;28;20087;-66
2021/10/27 05:58:51;;;;;;;22.60;13.15;;;4.10;99.90;;;;;;5050899;28;20037;-65
2021/10/27 06:01:16;;;;;;;19.90;12.82;;;4.10;99.90;;;;;;5049933;28;20470;-65
2021/10/27 06:03:43;;;;;;;22.50;14.38;;;4.00;99.90;;;;;;5050542;28;20059;-65
2021/10/27 06:06:15;;;;;;;22.40;13.35;;;4.00;99.90;;;;;;5050562;28;20131;-65
2021/10/27 06:08:40;;;;;;;24.70;14.88;;;4.00;99.90;;;;;;5050418;28;20032;-67
2021/10/27 06:11:11;;;;;;;28.05;16.23;;;4.00;99.90;;;;;;5050586;28;20033;-67
2021/10/27 06:13:43;;;;;;;24.40;15.95;;;4.10;99.90;;;;;;5049212;28;20029;-66
2021/10/27 06:16:16;;;;;;;29.98;17.45;;;4.10;99.90;;;;;;5030035;28;20037;-68
2021/10/27 06:18:43;;;;;;;29.02;16.90;;;4.10;99.90;;;;;;5045113;28;20029;-67
2021/10/27 06:21:17;;;;;;;30.15;17.90;;;4.20;99.90;;;;;;5050196;28;20059;-67
2021/10/27 06:23:43;;;;;;;33.50;20.95;;;4.30;99.90;;;;;;5050920;28;20036;-66
2021/10/27 06:26:21;;;;;;;32.53;19.67;;;4.40;99.90;;;;;;5050015;28;20119;-72
2021/10/27 06:29:07;;;;;;;33.70;18.88;;;4.50;99.90;;;;;;5047964;28;20033;-66
2021/10/27 06:31:40;;;;;;;33.13;17.30;;;4.60;99.90;;;;;;5050227;28;20048;-68
2021/10/27 06:34:20;;;;;;;28.38;17.73;;;4.70;99.90;;;;;;5050869;28;20057;-66
2021/10/27 06:47:13;;;;;;;23.25;15.82;;;5.10;99.90;;;;;;5049979;28;20150;-81
2021/10/27 06:49:40;;;;;;;21.58;14.52;;;5.20;99.90;;;;;;5031566;28;20459;-86
2021/10/27 06:52:06;;;;;;;18.35;13.25;;;5.30;99.90;;;;;;5044262;28;20093;-81
2021/10/27 06:54:32;;;;;;;18.20;13.38;;;5.40;99.90;;;;;;5042989;28;20167;-81
2021/10/27 06:56:57;;;;;;;16.60;11.60;;;5.50;99.90;;;;;;5030612;28;20022;-66
2021/10/27 07:15:33;;;;;;;15.18;10.85;;;6.00;99.90;;;;;;5031340;28;20044;-63
2021/10/27 07:17:59;;;;;;;15.43;10.50;;;6.00;99.90;;;;;;5043436;28;20034;-63
2021/10/27 07:20:27;;;;;;;16.15;10.45;;;6.10;99.90;;;;;;5033986;28;20036;-66
2021/10/27 07:23:00;;;;;;;16.65;10.98;;;6.10;99.90;;;;;;5036751;28;20063;-65
2021/10/27 07:25:26;;;;;;;15.15;9.38;;;6.20;99.90;;;;;;5033385;28;20038;-63
2021/10/27 07:27:52;;;;;;;13.25;9.90;;;6.30;99.90;;;;;;5039862;28;20505;-63
2021/10/27 07:30:19;;;;;;;11.98;9.43;;;6.40;99.90;;;;;;5033907;28;20112;-64
2021/10/27 07:32:45;;;;;;;13.73;9.80;;;6.50;99.90;;;;;;5041631;28;20131;-63
2021/10/27 07:40:34;;;;;;;11.05;9.00;;;6.50;99.90;;;;;;5041487;28;20036;-64
2021/10/27 07:43:08;;;;;;;11.40;9.15;;;6.60;99.90;;;;;;5041345;28;20036;-64
2021/10/27 07:45:34;;;;;;;13.70;9.20;;;6.70;99.90;;;;;;5052836;28;20044;-64
2021/10/27 07:48:01;;;;;;;16.38;9.38;;;6.70;99.90;;;;;;5051294;28;20021;-64
2021/10/27 07:50:28;;;;;;;12.70;8.75;;;6.80;99.90;;;;;;5032447;28;20037;-64
2021/10/27 07:52:55;;;;;;;10.63;8.88;;;6.90;99.90;;;;;;5047283;28;20037;-64
2021/10/27 07:55:20;;;;;;;10.95;8.18;;;6.90;99.90;;;;;;5036283;28;20037;-64
2021/10/27 07:57:49;;;;;;;10.30;8.05;;;6.90;99.90;;;;;;5053167;28;20075;-64
2021/10/27 08:00:17;;;;;;;11.35;8.98;;;6.90;99.90;;;;;;5048326;28;20472;-64
2021/10/27 08:02:50;;;;;;;11.20;8.98;;;6.90;99.90;;;;;;5034341;28;20378;-64
2021/10/27 08:05:18;;;;;;;10.80;8.88;;;6.90;99.90;;;;;;5045920;28;20040;-65
2021/10/27 08:07:51;;;;;;;12.85;9.07;;;7.00;99.90;;;;;;5053111;28;20111;-64
2021/10/27 08:10:20;;;;;;;11.40;8.95;;;7.00;99.90;;;;;;5050940;28;20025;-65
2021/10/27 08:12:49;;;;;;;9.65;8.52;;;7.10;99.90;;;;;;5051147;28;20060;-65
2021/10/27 08:15:20;;;;;;;15.13;8.75;;;7.10;99.90;;;;;;5051832;28;20037;-65
2021/10/27 08:17:47;;;;;;;15.00;8.77;;;7.30;99.90;;;;;;5038892;28;20028;-64
2021/10/27 08:20:19;;;;;;;11.00;7.95;;;7.40;99.90;;;;;;5052803;28;20099;-64
2021/10/27 08:22:47;;;;;;;11.35;8.45;;;7.60;99.90;;;;;;5053048;28;20060;-64
2021/10/27 08:25:22;;;;;;;12.45;8.43;;;7.70;99.90;;;;;;5046933;28;20029;-64
2021/10/27 08:27:49;;;;;;;11.00;8.32;;;7.80;99.90;;;;;;5053314;28;20465;-64
2021/10/27 08:30:19;;;;;;;16.58;8.40;;;7.90;99.90;;;;;;5051706;28;20044;-64
2021/10/27 08:32:54;;;;;;;12.05;8.95;;;7.90;99.90;;;;;;5052376;28;20474;-64
2021/10/27 08:35:21;;;;;;;11.23;8.10;;;8.00;99.90;;;;;;5044927;28;20059;-64
2021/10/27 08:37:49;;;;;;;11.68;8.32;;;8.00;99.90;;;;;;5052556;28;20032;-64
2021/10/27 08:40:21;;;;;;;14.60;9.05;;;8.10;99.90;;;;;;5052503;28;20504;-64
2021/10/27 08:42:48;;;;;;;12.35;9.25;;;8.10;99.90;;;;;;5052916;28;20548;-65
2021/10/27 08:45:15;;;;;;;11.10;8.68;;;8.20;99.90;;;;;;5051721;28;20533;-64
2021/10/27 08:47:42;;;;;;;11.05;8.20;;;8.30;99.90;;;;;;5052586;28;20044;-65
2021/10/27 08:50:11;;;;;;;12.98;8.63;;;8.50;99.90;;;;;;5052743;28;20482;-65
2021/10/27 08:52:38;;;;;;;12.77;8.73;;;8.60;99.90;;;;;;5052063;28;20481;-65
2021/10/27 08:55:04;;;;;;;12.73;8.75;;;8.70;99.90;;;;;;5052333;28;20390;-65
2021/10/27 08:57:31;;;;;;;13.75;8.68;;;8.80;99.90;;;;;;5052032;28;20098;-66
2021/10/27 09:02:46;;;;;;;12.25;9.30;;;8.90;99.90;;;;;;5051591;28;20477;-65
2021/10/27 09:38:51;;;;;;;11.93;9.13;;;10.00;99.90;;;;;;5052232;28;20025;-65
2021/10/27 10:04:05;;;;;;;9.60;8.57;;;11.20;99.90;;;;;;5051485;28;20036;-65
2021/10/27 10:06:40;;;;;;;12.60;8.48;;;11.30;99.90;;;;;;5050545;28;20100;-66
2021/10/27 10:09:10;;;;;;;15.07;8.95;;;11.50;99.90;;;;;;5051239;28;20032;-66
2021/10/27 10:11:37;;;;;;;11.95;8.60;;;11.70;99.90;;;;;;5049117;28;20020;-65
2021/10/27 10:14:05;;;;;;;10.57;7.65;;;11.80;99.90;;;;;;5050174;28;20529;-65
2021/10/27 10:16:36;;;;;;;12.27;8.10;;;11.90;99.90;;;;;;5050386;28;20116;-65
2021/10/27 10:19:09;;;;;;;12.57;6.80;;;12.10;99.90;;;;;;5051244;28;20033;-65
2021/10/27 10:21:36;;;;;;;11.02;4.55;;;12.30;99.90;;;;;;5050085;28;20040;-65
2021/10/27 10:24:17;;;;;;;7.60;4.57;;;12.40;99.90;;;;;;5051589;28;20443;-66
2021/10/27 10:26:44;;;;;;;10.00;5.38;;;12.60;99.90;;;;;;5050273;28;20520;-66
2021/10/27 10:29:10;;;;;;;7.78;4.70;;;12.80;99.90;;;;;;5051477;28;20021;-66
2021/10/27 10:31:37;;;;;;;10.50;4.88;;;12.90;99.90;;;;;;5050242;28;20082;-66
2021/10/27 10:34:08;;;;;;;8.85;4.53;;;13.10;99.90;;;;;;5051363;28;20037;-66
2021/10/27 10:36:38;;;;;;;;;;;13.20;99.90;;;;;;5050675;28;20032;-66
2021/10/27 11:38:50;;;;;;;8.65;5.50;;;15.00;99.90;;;;;;5050163;28;20039;-65
2021/10/27 11:41:30;;;;;;;;;;;14.90;99.90;;;;;;5049236;28;20445;-65
2021/10/27 11:44:13;;;;;;;10.05;4.30;;;14.90;99.90;;;;;;5053060;28;19917;-65
2021/10/27 11:46:58;;;;;;;5.45;3.88;;;14.90;99.90;;;;;;5053189;28;20120;-66
2021/10/27 11:49:35;;;;;;;8.68;3.70;;;15.10;99.90;;;;;;5052980;28;20028;-66
2021/10/27 11:52:04;;;;;;;8.02;4.28;;;15.20;99.90;;;;;;5053063;28;20033;-65
2021/10/27 11:54:31;;;;;;;6.75;3.60;;;15.30;99.90;;;;;;5048740;28;20037;-65
2021/10/27 11:57:02;;;;;;;8.70;3.97;;;15.30;99.90;;;;;;5053619;28;20402;-65
2021/10/27 11:59:47;;;;;;;8.13;3.70;;;15.30;99.70;;;;;;5053366;28;20083;-65
2021/10/27 12:02:13;;;;;;;5.18;3.10;;;15.40;99.90;;;;;;5052397;28;20497;-65
2021/10/27 12:04:40;;;;;;;6.07;2.95;;;15.30;99.90;;;;;;5052520;28;20025;-66
2021/10/27 12:17:59;;;;;;;4.47;2.25;;;15.60;95.60;;;;;;5052487;28;20150;-66
2021/10/27 12:20:37;;;;;;;2.83;1.60;;;15.70;94.80;;;;;;5053258;28;20397;-65
2021/10/27 12:23:07;;;;;;;5.85;1.35;;;;;;;;;;5053044;28;20041;-67
2021/10/27 12:25:34;;;;;;;2.95;1.20;;;16.50;89.10;;;;;;5052634;28;20025;-66
2021/10/27 12:28:03;;;;;;;2.67;1.15;;;16.80;83.60;;;;;;5052755;28;20042;-66
2021/10/27 12:30:44;;;;;;;2.17;1.20;;;17.10;79.80;;;;;;5052738;28;20052;-66
2021/10/27 12:33:10;;;;;;;2.60;1.00;;;17.50;79.50;;;;;;5053301;28;20467;-66
2021/10/27 12:35:36;;;;;;;1.88;0.80;;;17.60;78.70;;;;;;5051390;28;20079;-66
2021/10/27 12:38:11;;;;;;;1.60;0.82;;;17.90;74.70;;;;;;5052077;28;20035;-65
2021/10/27 12:40:40;;;;;;;3.97;1.65;;;18.20;73.70;;;;;;5041390;28;20171;-66
2021/10/27 12:43:08;;;;;;;1.63;0.97;;;18.60;72.00;;;;;;5051577;28;20029;-64
2021/10/27 12:45:38;;;;;;;2.78;1.10;;;19.00;70.80;;;;;;5051666;28;20466;-65
2021/10/27 12:48:13;;;;;;;3.40;1.48;;;;;;;;;;5052525;28;20036;-65
2021/10/27 12:51:01;;;;;;;2.13;1.20;;;19.70;70.50;;;;;;5051761;28;20454;-65
2021/10/27 12:53:38;;;;;;;4.25;1.80;;;19.70;71.00;;;;;;5052139;28;20393;-66
2021/10/27 12:56:12;;;;;;;5.90;3.17;;;19.80;68.80;;;;;;5052428;28;20758;-65
2021/10/27 12:58:42;;;;;;;6.45;3.30;;;19.80;69.50;;;;;;5052214;28;20021;-65
2021/10/27 13:04:19;;;;;;;3.13;2.08;;;19.40;72.00;;;;;;5052197;28;20037;-65
2021/10/27 13:30:24;;;;;;;5.57;2.97;;;19.60;71.50;;;;;;5050762;28;20452;-65
2021/10/27 13:32:57;;;;;;;5.10;3.15;;;19.70;71.20;;;;;;5044618;28;20124;-66
2021/10/27 13:35:24;;;;;;;3.00;1.98;;;19.70;70.50;;;;;;5052268;28;20116;-65
2021/10/27 13:37:51;;;;;;;3.90;2.65;;;19.70;70.90;;;;;;5050847;28;20622;-66
2021/10/27 13:40:17;;;;;;;4.80;2.88;;;19.70;70.40;;;;;;5051795;28;20062;-65
2021/10/27 13:42:56;;;;;;;7.32;3.10;;;19.40;70.60;;;;;;5050724;28;20029;-66
2021/10/27 13:45:32;;;;;;;5.70;2.40;;;19.10;70.20;;;;;;5051648;28;20060;-66
2021/10/27 14:06:38;;;;;;;4.97;2.58;;;16.90;76.40;;;;;;5050651;28;20493;-64
2021/10/27 14:09:29;;;;;;;9.00;2.67;;;16.80;76.30;;;;;;5051636;28;20025;-65
2021/10/27 14:12:00;;;;;;;4.53;2.38;;;16.80;76.90;;;;;;5050313;28;20029;-65
2021/10/27 14:14:41;;;;;;;7.07;2.85;;;16.70;78.00;;;;;;5050849;28;20167;-66
2021/10/27 14:19:45;;;;;;;5.43;2.55;;;16.60;77.60;;;;;;5050740;28;20029;-65
2021/10/27 14:58:54;;;;;;;2.85;1.83;;;15.70;87.70;;;;;;5054593;28;20043;-66
2021/10/27 15:19:49;;;;;;;6.50;2.55;;;14.60;96.90;;;;;;5047266;28;20507;-64
2021/10/27 15:43:42;;;;;;;4.68;2.40;;;13.30;99.90;;;;;;5043029;28;20512;-65
2021/10/27 15:51:37;;;;;;;6.05;2.80;;;12.90;99.90;;;;;;5042656;28;20091;-66
2021/10/27 15:54:03;;;;;;;5.70;2.15;;;12.80;99.90;;;;;;5033737;28;20101;-64
2021/10/27 15:56:29;;;;;;;4.50;2.00;;;12.70;99.90;;;;;;5033862;28;20051;-66
2021/10/27 15:58:55;;;;;;;4.40;2.05;;;12.60;99.90;;;;;;5044515;28;20351;-65
2021/10/27 16:01:21;;;;;;;3.45;2.25;;;12.50;99.90;;;;;;5052324;28;20025;-65
2021/10/27 16:03:47;;;;;;;2.85;1.85;;;12.40;99.90;;;;;;5053084;28;20028;-65
2021/10/27 16:06:15;;;;;;;3.60;1.98;;;12.30;99.90;;;;;;5053794;28;20040;-65
2021/10/27 16:08:45;;;;;;;4.45;2.03;;;12.20;99.90;;;;;;5052963;28;20095;-65
2021/10/27 16:11:11;;;;;;;3.90;2.25;;;12.10;99.90;;;;;;5053451;28;20056;-64
2021/10/27 16:13:41;;;;;;;4.82;2.65;;;12.00;99.90;;;;;;5053327;28;20084;-65
2021/10/27 16:16:07;;;;;;;6.05;2.72;;;11.90;99.90;;;;;;5052967;28;20060;-65
2021/10/27 16:18:33;;;;;;;6.93;2.95;;;11.80;99.90;;;;;;5053705;28;20035;-65
2021/10/27 16:21:02;;;;;;;5.03;2.45;;;11.70;99.90;;;;;;5052063;28;20082;-65
2021/10/27 16:23:28;;;;;;;6.15;2.95;;;11.50;99.90;;;;;;5053511;28;20028;-65
2021/10/27 16:25:55;;;;;;;4.90;3.03;;;11.50;99.90;;;;;;5052290;28;20025;-66
2021/10/27 16:28:22;;;;;;;4.50;2.22;;;11.40;99.90;;;;;;5053608;28;20082;-65
2021/10/27 16:30:48;;;;;;;5.07;2.45;;;11.30;99.90;;;;;;5051889;28;20398;-64
2021/10/27 16:33:17;;;;;;;9.18;3.10;;;11.20;99.90;;;;;;5053563;28;20032;-64
2021/10/27 16:35:45;;;;;;;4.32;2.50;;;11.20;99.90;;;;;;5052350;28;20608;-64
2021/10/27 16:38:11;;;;;;;8.05;3.00;;;11.20;99.90;;;;;;5051818;28;20025;-64
2021/10/27 16:40:37;;;;;;;5.57;2.38;;;11.10;99.90;;;;;;5052596;28;20028;-64
2021/10/27 16:43:03;;;;;;;4.07;2.40;;;11.10;99.90;;;;;;5052086;28;20462;-65
2021/10/27 16:45:30;;;;;;;4.63;2.20;;;11.00;99.90;;;;;;5052868;28;20095;-64
2021/10/27 16:47:56;;;;;;;5.60;2.38;;;11.00;99.90;;;;;;5052218;28;20033;-65
2021/10/27 16:50:22;;;;;;;3.33;2.10;;;10.90;99.90;;;;;;5048673;28;20359;-64
2021/10/27 16:52:48;;;;;;;7.20;2.50;;;10.90;99.90;;;;;;5051407;28;20028;-65
2021/10/27 16:55:20;;;;;;;6.65;2.30;;;10.80;99.90;;;;;;5052941;28;20056;-64
2021/10/27 16:57:48;;;;;;;4.40;2.20;;;10.80;99.90;;;;;;5051202;28;20043;-65
2021/10/27 17:00:19;;;;;;;5.43;2.83;;;10.80;99.90;;;;;;5053497;28;20482;-65
2021/10/27 17:02:46;;;;;;;6.10;2.88;;;10.80;99.90;;;;;;5051465;28;20037;-65
2021/10/27 17:05:12;;;;;;;5.28;2.55;;;10.80;99.90;;;;;;5052449;28;20123;-64
2021/10/27 17:07:39;;;;;;;6.68;2.80;;;10.80;99.90;;;;;;5052161;28;20033;-65
2021/10/27 17:10:07;;;;;;;8.20;2.80;;;10.70;99.90;;;;;;5052019;28;20075;-65
2021/10/27 17:12:34;;;;;;;3.78;2.28;;;10.70;99.90;;;;;;5051605;28;20075;-65
2021/10/27 17:15:02;;;;;;;7.40;3.35;;;10.60;99.90;;;;;;5051517;28;20040;-65
2021/10/27 17:17:28;;;;;;;6.15;3.53;;;10.50;99.90;;;;;;5050810;28;20088;-65
2021/10/27 17:19:55;;;;;;;8.70;3.28;;;10.50;99.90;;;;;;5052176;28;20112;-65
2021/10/27 17:22:26;;;;;;;6.82;3.65;;;10.40;99.90;;;;;;5052329;28;20025;-65
2021/10/27 17:24:52;;;;;;;6.22;4.05;;;10.30;99.90;;;;;;5051587;28;20033;-65
2021/10/27 17:27:18;;;;;;;8.43;3.60;;;10.20;99.90;;;;;;5052079;28;20104;-65
2021/10/27 17:29:44;;;;;;;6.03;3.80;;;10.20;99.90;;;;;;5051183;28;20478;-65
2021/10/27 17:32:10;;;;;;;5.88;3.42;;;10.10;99.90;;;;;;5052039;28;20032;-65
2021/10/27 17:34:36;;;;;;;7.78;3.55;;;10.00;99.90;;;;;;5051277;28;20170;-65
2021/10/27 17:37:02;;;;;;;7.40;3.55;;;10.00;99.90;;;;;;5050776;28;20131;-64
2021/10/27 17:39:30;;;;;;;6.78;3.28;;;9.90;99.90;;;;;;5052055;28;20025;-65
2021/10/27 17:41:57;;;;;;;8.52;3.65;;;9.80;99.90;;;;;;5050435;28;20375;-66
2021/10/27 17:44:24;;;;;;;8.25;4.25;;;9.80;99.90;;;;;;5051951;28;20056;-66